createdAt,value
2023-04-07T00:01:53.195Z,23.65
2023-04-07T00:04:20.958Z,26.50
2023-04-07T00:06:48.464Z,23.98
2023-04-07T00:09:15.919Z,22.73
2023-04-07T00:11:43.291Z,23.00
2023-04-07T00:14:10.557Z,21.75
2023-04-07T00:16:37.879Z,19.85
2023-04-07T00:19:05.207Z,18.52
2023-04-07T00:21:32.577Z,20.00
2023-04-07T00:23:59.825Z,20.98
2023-04-07T00:26:31.504Z,21.20
2023-04-07T00:28:59.484Z,20.17
2023-04-07T00:31:26.866Z,20.88
2023-04-07T00:33:54.457Z,19.67
2023-04-07T00:36:22.072Z,20.92
2023-04-07T00:38:49.393Z,20.92
2023-04-07T00:41:18.844Z,23.27
2023-04-07T00:43:46.213Z,18.23
2023-04-07T00:46:13.474Z,16.67
2023-04-07T00:48:40.815Z,16.52
2023-04-07T00:51:08.086Z,18.02
2023-04-07T00:53:35.471Z,17.48
2023-04-07T00:56:02.895Z,17.95
2023-04-07T00:58:30.247Z,16.88
2023-04-07T01:01:05.508Z,15.32
2023-04-07T01:03:35.731Z,15.77
2023-04-07T01:06:03.644Z,14.95
2023-04-07T01:08:31.027Z,15.13
2023-04-07T01:11:04.055Z,13.95
2023-04-07T01:13:39.773Z,14.15
2023-04-07T01:16:10.444Z,14.05
2023-04-07T01:18:39.255Z,13.15
2023-04-07T01:21:17.423Z,12.98
2023-04-07T01:23:47.898Z,13.27
2023-04-07T01:26:21.762Z,13.27
2023-04-07T01:29:07.824Z,12.52
2023-04-07T01:31:36.191Z,13.40
2023-04-07T01:34:04.386Z,14.63
2023-04-07T01:36:32.267Z,15.10
2023-04-07T01:38:59.943Z,13.73
2023-04-07T01:41:27.889Z,13.88
2023-04-07T01:43:56.187Z,12.20
2023-04-07T01:46:23.547Z,12.90
2023-04-07T01:48:51.380Z,14.23
2023-04-07T01:51:19.063Z,12.57
2023-04-07T01:53:46.894Z,13.18
2023-04-07T01:56:14.226Z,13.52
2023-04-07T01:58:41.554Z,13.10
2023-04-07T02:01:10.351Z,12.90
2023-04-07T02:03:44.398Z,12.05
2023-04-07T02:06:13.724Z,11.88
2023-04-07T02:08:43.328Z,12.35
2023-04-07T02:11:11.731Z,12.02
2023-04-07T02:13:39.474Z,12.82
2023-04-07T02:16:07.911Z,12.68
2023-04-07T02:18:35.355Z,12.68
2023-04-07T02:21:03.014Z,12.23
2023-04-07T02:23:30.418Z,13.35
2023-04-07T02:26:00.416Z,10.88
2023-04-07T02:28:27.688Z,11.30
2023-04-07T02:30:54.925Z,10.95
2023-04-07T02:33:22.220Z,11.15
2023-04-07T02:35:49.496Z,10.95
2023-04-07T02:38:16.763Z,10.88
2023-04-07T02:40:44.046Z,10.82
2023-04-07T02:43:11.610Z,11.40
2023-04-07T02:45:38.914Z,11.02
2023-04-07T02:48:06.377Z,10.40
2023-04-07T02:50:33.706Z,10.63
2023-04-07T02:53:00.998Z,10.35
2023-04-07T02:55:28.302Z,10.75
2023-04-07T02:57:55.687Z,10.93
2023-04-07T03:00:23.008Z,9.95
2023-04-07T03:02:50.366Z,10.93
2023-04-07T03:05:17.864Z,11.05
2023-04-07T03:07:45.127Z,10.68
2023-04-07T03:10:12.418Z,10.15
2023-04-07T03:12:39.721Z,11.07
2023-04-07T03:15:07.396Z,9.95
2023-04-07T03:17:34.765Z,10.18
2023-04-07T03:20:02.248Z,10.00
2023-04-07T03:22:29.500Z,11.18
2023-04-07T03:24:56.885Z,9.52
2023-04-07T03:27:24.158Z,10.13
2023-04-07T03:29:51.417Z,9.77
2023-04-07T03:32:18.740Z,9.98
2023-04-07T03:34:45.985Z,10.32
2023-04-07T03:37:13.264Z,9.93
2023-04-07T03:39:41.214Z,10.45
2023-04-07T03:42:08.651Z,9.57
2023-04-07T03:44:35.948Z,9.70
2023-04-07T03:47:03.194Z,9.57
2023-04-07T03:49:31.494Z,10.20
2023-04-07T03:51:58.917Z,9.40
2023-04-07T03:54:26.264Z,9.80
2023-04-07T03:56:53.546Z,9.27
2023-04-07T03:59:20.803Z,9.90
2023-04-07T04:01:48.147Z,10.63
2023-04-07T04:04:15.616Z,10.57
2023-04-07T04:06:43.017Z,10.32
2023-04-07T04:09:10.467Z,10.20
2023-04-07T04:11:37.763Z,11.07
2023-04-07T04:14:05.085Z,10.82
2023-04-07T04:16:32.516Z,9.93
2023-04-07T04:18:59.848Z,10.60
2023-04-07T04:21:27.381Z,10.15
2023-04-07T04:23:55.011Z,9.57
2023-04-07T04:26:26.066Z,9.52
2023-04-07T04:31:20.590Z,8.77
2023-04-07T04:33:47.911Z,8.77
2023-04-07T04:36:15.812Z,9.30
2023-04-07T04:38:43.144Z,9.07
2023-04-07T04:41:10.551Z,8.70
2023-04-07T04:43:37.914Z,8.43
2023-04-07T04:46:05.173Z,8.07
2023-04-07T04:48:32.478Z,8.93
2023-04-07T04:50:59.722Z,8.07
2023-04-07T04:53:27.713Z,8.73
2023-04-07T04:55:55.133Z,8.82
2023-04-07T04:58:22.429Z,7.97
2023-04-07T05:00:49.709Z,7.55
2023-04-07T05:03:17.249Z,7.10
2023-04-07T05:05:48.750Z,7.47
2023-04-07T05:08:16.588Z,7.97
2023-04-07T05:10:44.094Z,7.57
2023-04-07T05:13:12.102Z,7.40
2023-04-07T05:15:39.383Z,7.15
2023-04-07T05:18:06.775Z,7.50
2023-04-07T05:20:34.048Z,7.68
2023-04-07T05:23:01.531Z,7.43
2023-04-07T05:25:28.780Z,6.97
2023-04-07T05:27:56.488Z,6.93
2023-04-07T05:30:23.758Z,6.57
2023-04-07T05:32:51.104Z,6.95
2023-04-07T05:35:18.492Z,6.13
2023-04-07T05:37:45.754Z,5.32
2023-04-07T05:40:13.237Z,6.22
2023-04-07T05:42:40.503Z,5.78
2023-04-07T05:45:08.217Z,5.60
2023-04-07T05:47:35.627Z,5.05
2023-04-07T05:50:03.008Z,5.45
2023-04-07T05:52:30.400Z,5.65
2023-04-07T05:54:57.678Z,4.78
2023-04-07T05:57:25.045Z,5.30
2023-04-07T05:59:52.305Z,4.72
2023-04-07T06:02:19.642Z,4.55
2023-04-07T06:04:46.993Z,4.93
2023-04-07T06:07:14.256Z,4.70
2023-04-07T06:09:42.738Z,4.35
2023-04-07T06:12:12.302Z,4.22
2023-04-07T06:14:42.542Z,4.05
2023-04-07T06:17:09.894Z,4.13
2023-04-07T06:19:37.203Z,4.07
2023-04-07T06:22:04.473Z,4.07
2023-04-07T06:24:31.747Z,4.35
2023-04-07T06:26:59.077Z,3.95
2023-04-07T06:29:26.728Z,3.88
2023-04-07T06:31:53.965Z,3.70
2023-04-07T06:34:21.230Z,3.83
2023-04-07T06:36:48.962Z,3.60
2023-04-07T06:39:16.256Z,3.70
2023-04-07T06:41:43.676Z,3.38
2023-04-07T06:44:11.373Z,3.38
2023-04-07T06:46:38.691Z,3.30
2023-04-07T06:49:06.193Z,3.75
2023-04-07T06:51:33.434Z,3.30
2023-04-07T06:54:00.823Z,3.47
2023-04-07T06:56:28.103Z,3.33
2023-04-07T06:58:55.485Z,3.22
2023-04-07T07:01:22.906Z,2.97
2023-04-07T07:03:50.455Z,3.42
2023-04-07T07:06:18.049Z,3.60
2023-04-07T07:08:45.511Z,3.45
2023-04-07T07:11:12.768Z,2.92
2023-04-07T07:13:40.134Z,2.90
2023-04-07T07:16:07.509Z,3.20
2023-04-07T07:18:35.020Z,3.25
2023-04-07T07:21:02.325Z,3.17
2023-04-07T07:23:29.578Z,3.45
2023-04-07T07:25:56.992Z,2.92
2023-04-07T07:28:24.378Z,2.85
2023-04-07T07:30:51.712Z,3.10
2023-04-07T07:33:19.054Z,3.03
2023-04-07T07:35:46.391Z,4.20
2023-04-07T07:38:13.907Z,2.95
2023-04-07T07:40:41.286Z,3.70
2023-04-07T07:43:08.569Z,2.85
2023-04-07T07:45:35.833Z,2.45
2023-04-07T07:48:03.173Z,2.90
2023-04-07T07:50:30.960Z,2.70
2023-04-07T07:52:58.271Z,12.40
2023-04-07T07:55:25.522Z,4.60
2023-04-07T07:57:52.766Z,3.35
2023-04-07T08:00:20.114Z,3.92
2023-04-07T08:02:47.470Z,3.30
2023-04-07T08:05:14.806Z,3.00
2023-04-07T08:07:43.764Z,2.72
2023-04-07T08:10:11.104Z,2.53
2023-04-07T08:12:38.379Z,2.90
2023-04-07T08:15:06.543Z,3.17
2023-04-07T08:17:33.881Z,2.90
2023-04-07T08:20:02.305Z,3.67
2023-04-07T08:22:29.592Z,3.13
2023-04-07T08:24:56.848Z,2.97
2023-04-07T08:27:24.185Z,3.60
2023-04-07T08:30:01.447Z,3.22
2023-04-07T08:32:39.104Z,3.75
2023-04-07T08:35:06.616Z,3.53
2023-04-07T08:37:36.104Z,3.47
2023-04-07T08:40:04.200Z,3.15
2023-04-07T08:42:32.479Z,3.33
2023-04-07T08:45:03.434Z,3.40
2023-04-07T08:47:33.125Z,3.50
2023-04-07T08:50:08.464Z,3.05
2023-04-07T08:52:38.536Z,3.10
2023-04-07T08:55:07.017Z,3.22
2023-04-07T08:57:34.403Z,2.92
2023-04-07T09:00:08.547Z,3.13
2023-04-07T09:02:36.597Z,3.22
2023-04-07T09:05:04.942Z,2.75
2023-04-07T09:07:36.015Z,3.28
2023-04-07T09:10:03.674Z,3.05
2023-04-07T09:12:31.571Z,3.30
2023-04-07T09:14:58.932Z,3.03
2023-04-07T09:17:29.534Z,2.90
2023-04-07T09:20:01.097Z,3.08
2023-04-07T09:22:48.173Z,2.92
2023-04-07T09:25:17.093Z,2.97
2023-04-07T09:27:59.544Z,3.15
2023-04-07T09:30:27.518Z,2.90
2023-04-07T09:32:54.976Z,2.67
2023-04-07T09:35:23.390Z,2.90
2023-04-07T09:38:07.866Z,2.97
2023-04-07T09:40:35.775Z,2.40
2023-04-07T09:43:04.189Z,2.30
2023-04-07T09:45:35.876Z,2.70
2023-04-07T09:48:08.094Z,2.55
2023-04-07T09:50:41.483Z,2.60
2023-04-07T09:53:09.064Z,2.70
2023-04-07T09:55:36.417Z,2.55
2023-04-07T09:58:05.036Z,2.40
2023-04-07T10:00:32.522Z,2.47
2023-04-07T10:03:00.246Z,2.70
2023-04-07T10:05:28.597Z,2.78
2023-04-07T10:07:56.516Z,2.63
2023-04-07T10:10:23.738Z,2.33
2023-04-07T10:12:51.116Z,2.80
2023-04-07T10:15:18.518Z,2.70
2023-04-07T10:17:48.303Z,2.80
2023-04-07T10:20:16.063Z,2.80
2023-04-07T10:22:43.984Z,3.00
2023-04-07T10:25:12.499Z,2.80
2023-04-07T10:27:52.197Z,2.78
2023-04-07T10:30:24.771Z,3.40
2023-04-07T10:32:52.752Z,3.20
2023-04-07T10:35:20.343Z,2.78
2023-04-07T10:38:06.355Z,2.40
2023-04-07T10:40:34.093Z,2.53
2023-04-07T10:43:01.381Z,2.55
2023-04-07T10:45:47.096Z,2.70
2023-04-07T10:48:17.382Z,2.70
2023-04-07T10:50:45.703Z,2.75
2023-04-07T10:53:16.507Z,2.90
2023-04-07T10:55:47.640Z,2.60
2023-04-07T10:58:34.069Z,2.60
2023-04-07T11:01:01.569Z,2.60
2023-04-07T11:03:30.416Z,3.15
2023-04-07T11:06:08.522Z,2.63
2023-04-07T11:08:36.680Z,3.10
2023-04-07T11:11:09.381Z,2.63
2023-04-07T11:13:43.592Z,2.70
2023-04-07T11:16:11.540Z,2.90
2023-04-07T11:18:39.052Z,3.25
2023-04-07T11:21:06.920Z,2.90
2023-04-07T11:23:41.534Z,3.00
2023-04-07T11:26:10.746Z,2.85
2023-04-07T11:28:59.325Z,2.83
2023-04-07T11:31:27.575Z,3.10
2023-04-07T11:33:56.243Z,3.05
2023-04-07T11:36:33.912Z,3.80
2023-04-07T11:39:02.284Z,3.05
2023-04-07T11:41:30.848Z,3.60
2023-04-07T11:44:05.397Z,2.75
2023-04-07T11:46:32.773Z,2.78
2023-04-07T11:49:10.206Z,2.75
2023-04-07T11:51:37.539Z,2.97
2023-04-07T11:54:04.880Z,3.53
2023-04-07T11:56:42.002Z,2.90
2023-04-07T11:59:09.287Z,3.10
2023-04-07T12:01:41.839Z,3.13
2023-04-07T12:04:14.453Z,3.60
2023-04-07T12:06:42.794Z,3.50
2023-04-07T12:09:27.326Z,3.05
2023-04-07T12:11:54.833Z,2.80
2023-04-07T12:14:22.088Z,3.10
2023-04-07T12:16:49.487Z,3.30
2023-04-07T12:19:16.854Z,3.35
2023-04-07T12:21:44.110Z,3.58
2023-04-07T12:24:11.495Z,3.30
2023-04-07T12:26:38.853Z,3.40
2023-04-07T12:29:07.004Z,3.75
2023-04-07T12:31:34.940Z,3.70
2023-04-07T12:34:04.765Z,3.30
2023-04-07T12:36:32.074Z,3.30
2023-04-07T12:38:59.361Z,3.20
2023-04-07T12:41:27.033Z,2.97
2023-04-07T12:43:54.375Z,3.10
2023-04-07T12:46:21.860Z,2.97
2023-04-07T12:48:49.531Z,3.42
2023-04-07T12:51:16.798Z,3.40
2023-04-07T12:53:44.112Z,3.30
2023-04-07T12:56:13.285Z,3.47
2023-04-07T12:58:41.494Z,3.63
2023-04-07T13:01:08.823Z,3.20
2023-04-07T13:03:37.364Z,3.45
2023-04-07T13:06:04.931Z,3.60
2023-04-07T13:08:32.192Z,3.30
2023-04-07T13:10:59.450Z,3.33
2023-04-07T13:13:26.725Z,3.03
2023-04-07T13:15:54.416Z,3.42
2023-04-07T13:18:21.926Z,3.85
2023-04-07T13:20:58.569Z,3.05
2023-04-07T13:23:43.157Z,3.75
2023-04-07T13:26:11.389Z,4.60
2023-04-07T13:28:39.232Z,3.35
2023-04-07T13:31:07.670Z,3.35
2023-04-07T13:33:35.646Z,2.65
2023-04-07T13:36:02.972Z,3.10
2023-04-07T13:38:30.400Z,2.80
2023-04-07T13:40:58.005Z,2.92
2023-04-07T13:43:25.626Z,3.33
2023-04-07T13:45:53.077Z,3.50
2023-04-07T13:48:20.751Z,3.05
2023-04-07T13:50:48.022Z,3.15
2023-04-07T13:53:17.199Z,3.45
2023-04-07T13:55:46.465Z,3.10
2023-04-07T13:58:13.751Z,2.70
2023-04-07T14:00:41.358Z,3.25
2023-04-07T14:03:08.873Z,3.20
2023-04-07T14:05:36.322Z,2.97
2023-04-07T14:08:03.597Z,3.10
2023-04-07T14:10:31.588Z,3.15
2023-04-07T14:12:58.886Z,3.00
2023-04-07T14:15:26.508Z,3.30
2023-04-07T14:17:53.852Z,3.35
2023-04-07T14:20:21.185Z,3.30
2023-04-07T14:22:48.444Z,2.95
2023-04-07T14:25:15.758Z,3.00
2023-04-07T14:27:43.024Z,2.80
2023-04-07T14:30:10.844Z,3.00
2023-04-07T14:32:38.347Z,3.03
2023-04-07T14:35:05.822Z,3.60
2023-04-07T14:37:33.132Z,3.35
2023-04-07T14:40:03.126Z,3.25
2023-04-07T14:42:31.119Z,3.53
2023-04-07T14:44:59.919Z,3.20
2023-04-07T14:47:27.678Z,3.40
2023-04-07T14:49:55.631Z,3.10
2023-04-07T14:52:22.982Z,3.38
2023-04-07T14:54:50.260Z,3.35
2023-04-07T14:57:17.562Z,3.30
2023-04-07T14:59:44.887Z,3.58
2023-04-07T15:02:12.276Z,3.28
2023-04-07T15:04:39.816Z,3.40
2023-04-07T15:07:07.220Z,3.50
2023-04-07T15:09:34.570Z,3.53
2023-04-07T15:12:02.279Z,3.40
2023-04-07T15:14:29.579Z,3.33
2023-04-07T15:16:56.887Z,3.30
2023-04-07T15:19:24.143Z,3.30
2023-04-07T15:21:51.374Z,3.60
2023-04-07T15:24:19.717Z,3.55
2023-04-07T15:26:46.982Z,4.68
2023-04-07T15:29:14.256Z,3.50
2023-04-07T15:31:41.577Z,3.60
2023-04-07T15:34:08.849Z,3.40
2023-04-07T15:36:38.880Z,4.15
2023-04-07T15:39:06.970Z,4.13
2023-04-07T15:41:34.577Z,3.97
2023-04-07T15:44:02.171Z,3.80
2023-04-07T15:46:32.052Z,3.67
2023-04-07T15:49:00.099Z,3.53
2023-04-07T15:51:27.766Z,3.88
2023-04-07T15:53:55.207Z,4.10
2023-04-07T15:56:24.889Z,4.75
2023-04-07T15:58:52.366Z,4.90
2023-04-07T16:01:19.825Z,4.13
2023-04-07T16:03:47.772Z,5.20
2023-04-07T16:06:15.509Z,4.28
2023-04-07T16:08:42.754Z,4.55
2023-04-07T16:11:10.027Z,5.10
2023-04-07T16:13:37.601Z,5.03
2023-04-07T16:16:05.063Z,5.03
2023-04-07T16:18:32.410Z,4.93
2023-04-07T16:21:00.604Z,4.63
2023-04-07T16:23:28.614Z,4.82
2023-04-07T16:25:55.899Z,5.20
2023-04-07T16:28:23.217Z,5.05
2023-04-07T16:30:50.540Z,5.05
2023-04-07T16:33:17.823Z,5.82
2023-04-07T16:35:45.107Z,5.45
2023-04-07T16:38:13.097Z,5.70
2023-04-07T16:40:40.963Z,6.28
2023-04-07T16:43:09.258Z,5.18
2023-04-07T16:45:36.531Z,4.72
2023-04-07T16:48:03.845Z,4.63
2023-04-07T16:50:31.180Z,4.85
2023-04-07T16:52:58.536Z,4.63
2023-04-07T16:55:25.958Z,4.38
2023-04-07T16:57:53.216Z,4.18
2023-04-07T17:00:21.248Z,4.50
2023-04-07T17:02:48.671Z,4.47
2023-04-07T17:05:17.358Z,5.00
2023-04-07T17:07:44.644Z,4.82
2023-04-07T17:10:12.047Z,4.95
2023-04-07T17:12:39.317Z,4.95
2023-04-07T17:15:06.862Z,4.95
2023-04-07T17:17:34.252Z,5.47
2023-04-07T17:20:01.663Z,5.25
2023-04-07T17:22:29.201Z,5.55
2023-04-07T17:24:56.493Z,5.20
2023-04-07T17:27:23.774Z,4.65
2023-04-07T17:29:51.177Z,5.15
2023-04-07T17:32:18.503Z,6.00
2023-04-07T17:34:46.048Z,4.22
2023-04-07T17:37:13.302Z,5.28
2023-04-07T17:39:40.734Z,5.82
2023-04-07T17:42:10.924Z,5.35
2023-04-07T17:44:38.197Z,5.85
2023-04-07T17:47:05.489Z,6.13
2023-04-07T17:49:32.789Z,5.22
2023-04-07T17:52:00.307Z,5.72
2023-04-07T17:54:28.436Z,6.50
2023-04-07T17:56:56.520Z,6.15
2023-04-07T17:59:23.855Z,7.20
2023-04-07T18:01:51.355Z,6.90
2023-04-07T18:04:18.876Z,7.40
2023-04-07T18:06:46.199Z,6.85
2023-04-07T18:09:13.697Z,7.60
2023-04-07T18:11:41.576Z,7.78
2023-04-07T18:14:08.815Z,9.45
2023-04-07T18:16:36.590Z,12.52
2023-04-07T18:19:03.875Z,13.45
2023-04-07T18:21:31.335Z,13.95
2023-04-07T18:23:58.586Z,13.45
2023-04-07T18:26:25.836Z,14.32
2023-04-07T18:28:53.149Z,13.82
2023-04-07T18:31:20.804Z,14.43
2023-04-07T18:33:48.284Z,14.38
2023-04-07T18:36:15.895Z,11.85
2023-04-07T18:38:43.176Z,9.98
2023-04-07T18:41:12.268Z,9.00
2023-04-07T18:43:39.483Z,9.48
2023-04-07T18:46:09.056Z,8.65
2023-04-07T18:48:36.532Z,9.18
2023-04-07T18:51:03.795Z,9.48
2023-04-07T18:53:31.112Z,9.18
2023-04-07T18:55:58.379Z,17.02
2023-04-07T18:58:25.729Z,21.35
2023-04-07T19:00:54.552Z,19.48
2023-04-07T19:03:22.335Z,20.02
2023-04-07T19:05:52.495Z,22.00
2023-04-07T19:08:19.890Z,22.08
2023-04-07T19:10:48.067Z,22.70
2023-04-07T19:13:17.905Z,23.85
2023-04-07T19:15:46.569Z,23.20
2023-04-07T19:18:13.971Z,23.67
2023-04-07T19:20:41.240Z,22.85
2023-04-07T19:23:08.502Z,23.85
2023-04-07T19:25:35.991Z,22.55
2023-04-07T19:28:03.744Z,21.95
2023-04-07T19:30:31.005Z,22.48
2023-04-07T19:32:58.311Z,27.67
2023-04-07T19:35:25.710Z,32.13
2023-04-07T19:37:53.761Z,37.65
2023-04-07T19:40:21.063Z,21.73
2023-04-07T19:42:48.326Z,15.02
2023-04-07T19:45:16.371Z,10.63
2023-04-07T19:47:44.536Z,12.23
2023-04-07T19:50:12.008Z,11.55
2023-04-07T19:52:39.400Z,11.68
2023-04-07T19:55:07.960Z,11.32
2023-04-07T19:57:37.141Z,10.67
2023-04-07T20:00:04.971Z,9.63
2023-04-07T20:02:32.373Z,10.00
2023-04-07T20:04:59.697Z,10.07
2023-04-07T20:07:27.326Z,9.98
2023-04-07T20:09:55.159Z,9.55
2023-04-07T20:12:22.449Z,9.63
2023-04-07T20:14:49.806Z,8.52
2023-04-07T20:17:17.070Z,9.18
2023-04-07T20:19:44.390Z,9.38
2023-04-07T20:22:11.648Z,7.82
2023-04-07T20:24:39.782Z,8.43
2023-04-07T20:27:07.074Z,8.93
2023-04-07T20:29:34.339Z,9.82
2023-04-07T20:32:01.594Z,10.18
2023-04-07T20:34:28.853Z,13.20
2023-04-07T20:36:56.632Z,14.05
2023-04-07T20:39:23.909Z,13.10
2023-04-07T20:41:51.174Z,11.32
2023-04-07T20:44:18.585Z,11.88
2023-04-07T20:46:49.042Z,9.65
2023-04-07T20:49:16.303Z,10.75
2023-04-07T20:51:43.692Z,11.55
2023-04-07T20:54:10.965Z,9.32
2023-04-07T20:56:38.304Z,9.45
2023-04-07T20:59:05.609Z,9.82
2023-04-07T21:01:33.012Z,10.32
2023-04-07T21:04:02.813Z,10.43
2023-04-07T21:06:31.432Z,10.20
2023-04-07T21:08:58.807Z,10.60
2023-04-07T21:11:26.326Z,10.80
2023-04-07T21:13:53.604Z,11.10
2023-04-07T21:16:21.376Z,11.05
2023-04-07T21:18:49.177Z,11.43
2023-04-07T21:21:16.815Z,11.27
2023-04-07T21:23:44.054Z,10.77
2023-04-07T21:26:11.548Z,9.75
2023-04-07T21:28:40.547Z,10.18
2023-04-07T21:31:08.146Z,9.15
2023-04-07T21:33:35.631Z,9.70
2023-04-07T21:36:06.600Z,10.05
2023-04-07T21:38:33.966Z,9.52
2023-04-07T21:41:01.299Z,9.70
2023-04-07T21:43:28.961Z,9.52
2023-04-07T21:45:56.299Z,9.45
2023-04-07T21:48:23.806Z,9.32
2023-04-07T21:50:54.492Z,9.65
2023-04-07T21:53:24.002Z,9.02
2023-04-07T21:55:52.002Z,9.18
2023-04-07T21:58:19.259Z,8.82
2023-04-07T22:00:50.253Z,9.40
2023-04-07T22:03:20.420Z,8.90
2023-04-07T22:05:47.850Z,8.20
2023-04-07T22:08:15.196Z,8.63
2023-04-07T22:10:42.513Z,8.43
2023-04-07T22:13:10.031Z,9.57
2023-04-07T22:15:37.294Z,8.40
2023-04-07T22:18:05.026Z,8.45
2023-04-07T22:20:32.411Z,7.80
2023-04-07T22:22:59.720Z,7.95
2023-04-07T22:25:27.094Z,7.18
2023-04-07T22:27:54.391Z,7.88
2023-04-07T22:30:24.354Z,7.72
2023-04-07T22:32:51.889Z,6.78
2023-04-07T22:35:19.206Z,7.13
2023-04-07T22:37:46.524Z,7.03
2023-04-07T22:40:13.839Z,6.85
2023-04-07T22:42:41.227Z,6.60
2023-04-07T22:45:08.916Z,6.80
2023-04-07T22:47:36.530Z,6.70
2023-04-07T22:50:03.886Z,6.28
2023-04-07T22:52:31.266Z,6.40
2023-04-07T22:54:58.553Z,6.63
2023-04-07T22:57:26.759Z,6.50
2023-04-07T22:59:54.016Z,6.57
2023-04-07T23:02:21.466Z,7.30
2023-04-07T23:04:49.748Z,7.07
2023-04-07T23:07:17.181Z,7.25
2023-04-07T23:09:44.448Z,7.25
2023-04-07T23:12:11.786Z,7.50
2023-04-07T23:14:39.013Z,7.20
2023-04-07T23:17:06.300Z,6.82
2023-04-07T23:19:33.594Z,7.13
2023-04-07T23:22:00.834Z,7.85
2023-04-07T23:24:28.150Z,7.68
2023-04-07T23:26:56.990Z,7.28
2023-04-07T23:29:24.269Z,6.93
2023-04-07T23:31:52.809Z,7.75
2023-04-07T23:34:20.216Z,8.25
2023-04-07T23:36:47.634Z,7.35
2023-04-07T23:39:14.932Z,6.88
2023-04-07T23:41:42.495Z,6.63
2023-04-07T23:44:09.767Z,6.57
2023-04-07T23:46:37.095Z,6.80
2023-04-07T23:49:04.390Z,6.45
2023-04-07T23:51:31.798Z,6.45
2023-04-07T23:53:59.102Z,5.97
2023-04-07T23:56:26.401Z,6.07
2023-04-07T23:58:53.677Z,6.00
